sensor_id;sensor_type;location;lat;lon;timestamp;pressure;altitude;pressure_sealevel;temperature;humidity
55687;BME280;41911;52.362;4.978;2023-06-14T00:00:27;101627.57;;;22.00;32.31
55687;BME280;41911;52.362;4.978;2023-06-14T00:00:58;101627.32;;;22.28;32.47
55687;BME280;41911;52.362;4.978;2023-06-14T00:01:29;101629.37;;;21.73;32.14
55687;BME280;41911;52.362;4.978;2023-06-14T00:02:00;101628.91;;;21.98;32.00
55687;BME280;41911;52.362;4.978;2023-06-14T00:02:31;101630.31;;;22.00;32.15
55687;BME280;41911;52.362;4.978;2023-06-14T00:03:02;101631.99;;;22.35;31.73
55687;BME280;41911;52.362;4.978;2023-06-14T00:03:33;101629.45;;;22.22;32.03
55687;BME280;41911;52.362;4.978;2023-06-14T00:04:04;101628.65;;;22.16;31.89
55687;BME280;41911;52.362;4.978;2023-06-14T00:04:35;101630.04;;;21.85;32.54
55687;BME280;41911;52.362;4.978;2023-06-14T00:05:06;101630.16;;;21.94;32.24
55687;BME280;41911;52.362;4.978;2023-06-14T00:05:38;101629.23;;;22.03;32.49
55687;BME280;41911;52.362;4.978;2023-06-14T00:06:09;101628.34;;;21.80;32.66
55687;BME280;41911;52.362;4.978;2023-06-14T00:06:39;101629.93;;;21.81;32.74
55687;BME280;41911;52.362;4.978;2023-06-14T00:07:10;101631.01;;;21.85;32.39
55687;BME280;41911;52.362;4.978;2023-06-14T00:07:42;101631.58;;;22.03;31.76
55687;BME280;41911;52.362;4.978;2023-06-14T00:08:13;101629.87;;;21.88;32.24
55687;BME280;41911;52.362;4.978;2023-06-14T00:08:44;101629.33;;;22.10;32.40
55687;BME280;41911;52.362;4.978;2023-06-14T00:09:15;101628.92;;;21.72;32.72
55687;BME280;41911;52.362;4.978;2023-06-14T00:09:46;101629.90;;;21.80;32.58
55687;BME280;41911;52.362;4.978;2023-06-14T00:10:17;101627.45;;;21.42;32.65
55687;BME280;41911;52.362;4.978;2023-06-14T00:10:48;101628.47;;;21.81;31.93
55687;BME280;41911;52.362;4.978;2023-06-14T00:11:19;101627.97;;;21.85;32.23
55687;BME280;41911;52.362;4.978;2023-06-14T00:11:50;101627.72;;;21.85;32.04
55687;BME280;41911;52.362;4.978;2023-06-14T00:12:21;101628.36;;;22.11;31.76
55687;BME280;41911;52.362;4.978;2023-06-14T00:12:52;101628.34;;;21.50;31.82
55687;BME280;41911;52.362;4.978;2023-06-14T00:13:23;101626.87;;;22.04;32.08
55687;BME280;41911;52.362;4.978;2023-06-14T00:13:54;101625.89;;;21.95;31.98
55687;BME280;41911;52.362;4.978;2023-06-14T00:14:25;101627.36;;;21.82;31.83
55687;BME280;41911;52.362;4.978;2023-06-14T00:14:56;101627.13;;;21.74;31.24
55687;BME280;41911;52.362;4.978;2023-06-14T00:15:28;101627.89;;;21.69;31.68
55687;BME280;41911;52.362;4.978;2023-06-14T00:15:59;101627.42;;;21.65;31.46
55687;BME280;41911;52.362;4.978;2023-06-14T00:16:30;101626.74;;;21.94;31.53
55687;BME280;41911;52.362;4.978;2023-06-14T00:17:01;101626.52;;;21.42;31.27
55687;BME280;41911;52.362;4.978;2023-06-14T00:17:31;101627.74;;;21.78;31.34
55687;BME280;41911;52.362;4.978;2023-06-14T00:18:04;101628.89;;;21.66;31.55
55687;BME280;41911;52.362;4.978;2023-06-14T00:18:35;101628.05;;;21.74;31.04
55687;BME280;41911;52.362;4.978;2023-06-14T00:19:06;101628.71;;;21.47;31.09
55687;BME280;41911;52.362;4.978;2023-06-14T00:19:37;101628.57;;;21.75;31.05
55687;BME280;41911;52.362;4.978;2023-06-14T00:20:10;101625.93;;;21.67;31.53
55687;BME280;41911;52.362;4.978;2023-06-14T00:20:41;101629.14;;;21.94;31.69
55687;BME280;41911;52.362;4.978;2023-06-14T00:21:12;101627.00;;;21.70;31.47
55687;BME280;41911;52.362;4.978;2023-06-14T00:21:43;101629.07;;;21.67;31.36
55687;BME280;41911;52.362;4.978;2023-06-14T00:22:14;101629.30;;;21.87;31.44
55687;BME280;41911;52.362;4.978;2023-06-14T00:22:45;101628.10;;;21.52;31.00
55687;BME280;41911;52.362;4.978;2023-06-14T00:23:16;101629.27;;;21.82;30.98
55687;BME280;41911;52.362;4.978;2023-06-14T00:23:48;101627.93;;;21.68;30.57
55687;BME280;41911;52.362;4.978;2023-06-14T00:24:19;101627.65;;;21.77;30.59
55687;BME280;41911;52.362;4.978;2023-06-14T00:24:50;101626.34;;;21.66;30.61
55687;BME280;41911;52.362;4.978;2023-06-14T00:25:22;101628.56;;;21.87;30.19
55687;BME280;41911;52.362;4.978;2023-06-14T00:25:53;101627.56;;;21.45;30.34
55687;BME280;41911;52.362;4.978;2023-06-14T00:26:24;101627.79;;;21.68;31.01
55687;BME280;41911;52.362;4.978;2023-06-14T00:26:55;101629.90;;;21.95;30.52
55687;BME280;41911;52.362;4.978;2023-06-14T00:27:26;101630.15;;;21.58;30.45
55687;BME280;41911;52.362;4.978;2023-06-14T00:27:57;101633.45;;;21.60;30.05
55687;BME280;41911;52.362;4.978;2023-06-14T00:28:28;101632.19;;;21.37;30.28
55687;BME280;41911;52.362;4.978;2023-06-14T00:28:59;101631.97;;;21.57;30.34
55687;BME280;41911;52.362;4.978;2023-06-14T00:29:30;101629.71;;;21.51;30.31
55687;BME280;41911;52.362;4.978;2023-06-14T00:30:01;101631.40;;;21.61;30.15
55687;BME280;41911;52.362;4.978;2023-06-14T00:30:32;101629.05;;;21.52;30.77
55687;BME280;41911;52.362;4.978;2023-06-14T00:31:03;101630.40;;;21.52;30.67
55687;BME280;41911;52.362;4.978;2023-06-14T00:31:34;101627.77;;;21.53;30.23
55687;BME280;41911;52.362;4.978;2023-06-14T00:32:05;101630.37;;;21.22;29.96
55687;BME280;41911;52.362;4.978;2023-06-14T00:32:36;101631.10;;;21.52;29.94
55687;BME280;41911;52.362;4.978;2023-06-14T00:33:07;101628.18;;;21.51;29.82
55687;BME280;41911;52.362;4.978;2023-06-14T00:33:38;101627.18;;;21.49;30.17
55687;BME280;41911;52.362;4.978;2023-06-14T00:34:09;101629.40;;;21.59;29.61
55687;BME280;41911;52.362;4.978;2023-06-14T00:34:40;101627.59;;;21.55;30.13
55687;BME280;41911;52.362;4.978;2023-06-14T00:35:11;101626.85;;;21.31;30.02
55687;BME280;41911;52.362;4.978;2023-06-14T00:35:42;101627.77;;;22.00;29.32
55687;BME280;41911;52.362;4.978;2023-06-14T00:36:13;101631.59;;;21.67;29.52
55687;BME280;41911;52.362;4.978;2023-06-14T00:36:44;101629.10;;;21.54;29.68
55687;BME280;41911;52.362;4.978;2023-06-14T00:37:15;101627.52;;;21.40;29.77
55687;BME280;41911;52.362;4.978;2023-06-14T00:37:46;101628.18;;;21.52;29.62
55687;BME280;41911;52.362;4.978;2023-06-14T00:38:16;101625.44;;;21.51;29.56
55687;BME280;41911;52.362;4.978;2023-06-14T00:38:47;101628.16;;;21.49;30.02
55687;BME280;41911;52.362;4.978;2023-06-14T00:39:18;101625.69;;;21.43;29.79
55687;BME280;41911;52.362;4.978;2023-06-14T00:39:49;101629.03;;;21.48;29.75
55687;BME280;41911;52.362;4.978;2023-06-14T00:40:20;101626.96;;;21.40;29.41
55687;BME280;41911;52.362;4.978;2023-06-14T00:40:51;101628.96;;;21.86;29.60
55687;BME280;41911;52.362;4.978;2023-06-14T00:41:22;101630.95;;;21.42;29.43
55687;BME280;41911;52.362;4.978;2023-06-14T00:41:53;101630.88;;;21.39;29.34
55687;BME280;41911;52.362;4.978;2023-06-14T00:42:24;101630.41;;;21.31;29.74
55687;BME280;41911;52.362;4.978;2023-06-14T00:42:55;101630.69;;;21.28;30.13
55687;BME280;41911;52.362;4.978;2023-06-14T00:43:26;101633.24;;;21.24;29.97
55687;BME280;41911;52.362;4.978;2023-06-14T00:43:57;101631.78;;;21.31;29.77
55687;BME280;41911;52.362;4.978;2023-06-14T00:44:28;101631.94;;;21.26;30.13
55687;BME280;41911;52.362;4.978;2023-06-14T00:44:59;101632.36;;;21.34;30.01
55687;BME280;41911;52.362;4.978;2023-06-14T00:45:30;101631.08;;;21.36;29.71
55687;BME280;41911;52.362;4.978;2023-06-14T00:46:01;101630.92;;;21.50;29.32
55687;BME280;41911;52.362;4.978;2023-06-14T00:46:32;101631.38;;;21.67;29.18
55687;BME280;41911;52.362;4.978;2023-06-14T00:47:04;101631.79;;;21.33;29.46
55687;BME280;41911;52.362;4.978;2023-06-14T00:47:35;101634.42;;;21.57;29.84
55687;BME280;41911;52.362;4.978;2023-06-14T00:48:08;101633.54;;;21.60;29.56
55687;BME280;41911;52.362;4.978;2023-06-14T00:48:40;101634.55;;;21.30;29.07
55687;BME280;41911;52.362;4.978;2023-06-14T00:49:14;101633.78;;;21.80;29.60
55687;BME280;41911;52.362;4.978;2023-06-14T00:49:47;101634.57;;;21.27;29.59
55687;BME280;41911;52.362;4.978;2023-06-14T00:50:20;101632.53;;;21.26;29.42
55687;BME280;41911;52.362;4.978;2023-06-14T00:50:52;101634.55;;;21.41;30.10
55687;BME280;41911;52.362;4.978;2023-06-14T00:51:23;101634.52;;;21.40;29.56
55687;BME280;41911;52.362;4.978;2023-06-14T00:51:54;101635.84;;;21.33;29.85
55687;BME280;41911;52.362;4.978;2023-06-14T00:52:25;101635.76;;;21.40;29.76
55687;BME280;41911;52.362;4.978;2023-06-14T00:52:56;101634.08;;;21.41;29.76
55687;BME280;41911;52.362;4.978;2023-06-14T00:53:28;101633.37;;;21.76;29.65
55687;BME280;41911;52.362;4.978;2023-06-14T00:53:59;101629.69;;;21.48;29.64
55687;BME280;41911;52.362;4.978;2023-06-14T00:54:30;101633.20;;;21.40;30.09
55687;BME280;41911;52.362;4.978;2023-06-14T00:55:01;101633.49;;;21.35;29.47
55687;BME280;41911;52.362;4.978;2023-06-14T00:55:32;101631.92;;;21.38;29.88
55687;BME280;41911;52.362;4.978;2023-06-14T00:56:03;101633.01;;;21.40;29.99
55687;BME280;41911;52.362;4.978;2023-06-14T00:56:36;101631.72;;;21.35;29.51
55687;BME280;41911;52.362;4.978;2023-06-14T00:57:09;101631.19;;;21.42;29.45
55687;BME280;41911;52.362;4.978;2023-06-14T00:57:40;101632.36;;;21.42;29.57
55687;BME280;41911;52.362;4.978;2023-06-14T00:58:11;101632.91;;;21.41;29.34
55687;BME280;41911;52.362;4.978;2023-06-14T00:58:43;101634.26;;;21.31;29.98
55687;BME280;41911;52.362;4.978;2023-06-14T00:59:14;101636.16;;;21.31;29.62
55687;BME280;41911;52.362;4.978;2023-06-14T00:59:47;101636.79;;;21.04;29.70
55687;BME280;41911;52.362;4.978;2023-06-14T01:00:18;101637.09;;;21.37;29.53
55687;BME280;41911;52.362;4.978;2023-06-14T01:00:49;101637.28;;;21.04;29.84
55687;BME280;41911;52.362;4.978;2023-06-14T01:01:20;101638.25;;;21.33;29.92
55687;BME280;41911;52.362;4.978;2023-06-14T01:01:51;101637.33;;;21.33;29.60
55687;BME280;41911;52.362;4.978;2023-06-14T01:02:22;101633.85;;;21.42;28.80
55687;BME280;41911;52.362;4.978;2023-06-14T01:02:54;101634.96;;;21.37;29.51
55687;BME280;41911;52.362;4.978;2023-06-14T01:03:25;101635.27;;;21.32;29.77
55687;BME280;41911;52.362;4.978;2023-06-14T01:03:56;101633.57;;;21.34;29.54
55687;BME280;41911;52.362;4.978;2023-06-14T01:04:27;101636.21;;;21.31;29.90
55687;BME280;41911;52.362;4.978;2023-06-14T01:04:58;101632.10;;;20.96;29.77
55687;BME280;41911;52.362;4.978;2023-06-14T01:05:29;101634.27;;;21.32;29.68
55687;BME280;41911;52.362;4.978;2023-06-14T01:06:11;101638.37;;;21.00;29.28
55687;BME280;41911;52.362;4.978;2023-06-14T01:06:52;101636.61;;;21.33;29.16
55687;BME280;41911;52.362;4.978;2023-06-14T01:07:34;101636.36;;;21.30;29.88
55687;BME280;41911;52.362;4.978;2023-06-14T01:08:20;101635.58;;;21.30;29.11
55687;BME280;41911;52.362;4.978;2023-06-14T01:09:06;101636.67;;;21.18;29.59
55687;BME280;41911;52.362;4.978;2023-06-14T01:10:08;101637.25;;;21.58;28.63
55687;BME280;41911;52.362;4.978;2023-06-14T01:10:51;101638.61;;;21.23;29.46
55687;BME280;41911;52.362;4.978;2023-06-14T01:11:30;101638.03;;;21.21;29.11
55687;BME280;41911;52.362;4.978;2023-06-14T01:12:10;101639.63;;;20.93;29.15
55687;BME280;41911;52.362;4.978;2023-06-14T01:12:50;101640.20;;;21.21;29.64
55687;BME280;41911;52.362;4.978;2023-06-14T01:13:32;101640.39;;;21.19;29.51
55687;BME280;41911;52.362;4.978;2023-06-14T01:14:03;101639.68;;;21.18;29.54
55687;BME280;41911;52.362;4.978;2023-06-14T01:14:36;101641.50;;;21.17;29.65
55687;BME280;41911;52.362;4.978;2023-06-14T01:15:09;101641.53;;;21.19;29.52
55687;BME280;41911;52.362;4.978;2023-06-14T01:15:43;101640.36;;;21.18;29.68
55687;BME280;41911;52.362;4.978;2023-06-14T01:16:15;101641.65;;;21.10;29.61
55687;BME280;41911;52.362;4.978;2023-06-14T01:16:46;101639.54;;;21.16;29.75
55687;BME280;41911;52.362;4.978;2023-06-14T01:17:18;101640.42;;;21.21;29.39
55687;BME280;41911;52.362;4.978;2023-06-14T01:17:50;101642.75;;;21.17;29.69
55687;BME280;41911;52.362;4.978;2023-06-14T01:18:22;101641.47;;;20.82;29.78
55687;BME280;41911;52.362;4.978;2023-06-14T01:18:53;101641.75;;;21.02;29.92
55687;BME280;41911;52.362;4.978;2023-06-14T01:19:24;101640.88;;;20.78;30.01
55687;BME280;41911;52.362;4.978;2023-06-14T01:19:55;101638.50;;;21.07;30.05
55687;BME280;41911;52.362;4.978;2023-06-14T01:20:28;101643.29;;;21.11;29.64
55687;BME280;41911;52.362;4.978;2023-06-14T01:21:00;101639.47;;;21.02;29.43
55687;BME280;41911;52.362;4.978;2023-06-14T01:21:31;101636.82;;;21.03;29.61
55687;BME280;41911;52.362;4.978;2023-06-14T01:22:02;101637.66;;;21.06;28.99
55687;BME280;41911;52.362;4.978;2023-06-14T01:22:34;101639.14;;;21.08;29.38
55687;BME280;41911;52.362;4.978;2023-06-14T01:23:06;101639.25;;;20.73;29.44
55687;BME280;41911;52.362;4.978;2023-06-14T01:23:37;101640.28;;;21.02;29.38
55687;BME280;41911;52.362;4.978;2023-06-14T01:24:08;101636.94;;;21.03;29.34
55687;BME280;41911;52.362;4.978;2023-06-14T01:24:39;101635.84;;;21.04;30.09
55687;BME280;41911;52.362;4.978;2023-06-14T01:25:09;101637.74;;;21.11;30.60
55687;BME280;41911;52.362;4.978;2023-06-14T01:25:40;101640.55;;;21.07;30.57
55687;BME280;41911;52.362;4.978;2023-06-14T01:26:11;101638.91;;;20.79;30.51
55687;BME280;41911;52.362;4.978;2023-06-14T01:26:42;101640.88;;;21.07;30.94
55687;BME280;41911;52.362;4.978;2023-06-14T01:27:13;101635.98;;;21.10;31.15
55687;BME280;41911;52.362;4.978;2023-06-14T01:27:45;101637.89;;;20.95;31.24
55687;BME280;41911;52.362;4.978;2023-06-14T01:28:16;101637.87;;;21.01;31.47
55687;BME280;41911;52.362;4.978;2023-06-14T01:28:47;101640.64;;;20.84;31.55
55687;BME280;41911;52.362;4.978;2023-06-14T01:29:19;101640.79;;;20.78;31.64
55687;BME280;41911;52.362;4.978;2023-06-14T01:29:50;101639.54;;;20.76;31.78
55687;BME280;41911;52.362;4.978;2023-06-14T01:30:23;101638.70;;;20.74;31.90
55687;BME280;41911;52.362;4.978;2023-06-14T01:30:54;101639.56;;;20.78;31.28
55687;BME280;41911;52.362;4.978;2023-06-14T01:31:26;101639.53;;;20.75;31.31
55687;BME280;41911;52.362;4.978;2023-06-14T01:31:57;101638.55;;;20.70;31.62
55687;BME280;41911;52.362;4.978;2023-06-14T01:32:29;101638.58;;;20.65;31.77
55687;BME280;41911;52.362;4.978;2023-06-14T01:33:01;101637.42;;;20.57;31.59
55687;BME280;41911;52.362;4.978;2023-06-14T01:33:32;101639.92;;;20.53;31.64
55687;BME280;41911;52.362;4.978;2023-06-14T01:34:04;101640.64;;;21.27;31.22
55687;BME280;41911;52.362;4.978;2023-06-14T01:34:35;101637.80;;;20.49;31.46
55687;BME280;41911;52.362;4.978;2023-06-14T01:35:07;101637.01;;;20.60;31.56
55687;BME280;41911;52.362;4.978;2023-06-14T01:35:38;101636.48;;;20.46;31.82
55687;BME280;41911;52.362;4.978;2023-06-14T01:36:09;101639.51;;;20.72;31.42
55687;BME280;41911;52.362;4.978;2023-06-14T01:36:41;101635.81;;;20.43;31.20
55687;BME280;41911;52.362;4.978;2023-06-14T01:37:14;101637.38;;;20.84;31.33
55687;BME280;41911;52.362;4.978;2023-06-14T01:37:47;101637.43;;;20.78;31.04
55687;BME280;41911;52.362;4.978;2023-06-14T01:38:20;101635.39;;;20.73;31.14
55687;BME280;41911;52.362;4.978;2023-06-14T01:38:52;101638.39;;;20.42;31.43
55687;BME280;41911;52.362;4.978;2023-06-14T01:39:24;101637.00;;;20.57;31.61
55687;BME280;41911;52.362;4.978;2023-06-14T01:39:55;101639.80;;;20.41;31.41
55687;BME280;41911;52.362;4.978;2023-06-14T01:40:27;101637.01;;;20.74;30.94
55687;BME280;41911;52.362;4.978;2023-06-14T01:40:59;101639.70;;;20.46;30.99
55687;BME280;41911;52.362;4.978;2023-06-14T01:41:31;101641.33;;;20.35;31.58
55687;BME280;41911;52.362;4.978;2023-06-14T01:42:05;101642.04;;;20.98;31.20
55687;BME280;41911;52.362;4.978;2023-06-14T01:42:38;101639.33;;;20.62;31.16
55687;BME280;41911;52.362;4.978;2023-06-14T01:43:10;101639.58;;;20.65;31.50
55687;BME280;41911;52.362;4.978;2023-06-14T01:43:43;101640.97;;;20.85;31.09
55687;BME280;41911;52.362;4.978;2023-06-14T01:44:16;101641.74;;;20.27;30.98
55687;BME280;41911;52.362;4.978;2023-06-14T01:44:48;101639.00;;;20.29;31.10
55687;BME280;41911;52.362;4.978;2023-06-14T01:45:20;101641.23;;;20.41;30.82
55687;BME280;41911;52.362;4.978;2023-06-14T01:45:53;101643.52;;;20.62;30.81
55687;BME280;41911;52.362;4.978;2023-06-14T01:46:24;101640.92;;;20.26;30.79
55687;BME280;41911;52.362;4.978;2023-06-14T01:46:56;101641.17;;;20.85;31.02
55687;BME280;41911;52.362;4.978;2023-06-14T01:47:27;101640.87;;;20.62;30.40
55687;BME280;41911;52.362;4.978;2023-06-14T01:47:58;101642.04;;;20.26;30.79
55687;BME280;41911;52.362;4.978;2023-06-14T01:48:29;101640.37;;;20.59;30.41
55687;BME280;41911;52.362;4.978;2023-06-14T01:49:00;101640.72;;;20.76;30.13
55687;BME280;41911;52.362;4.978;2023-06-14T01:49:33;101640.76;;;20.11;30.56
55687;BME280;41911;52.362;4.978;2023-06-14T01:50:05;101641.75;;;20.47;30.62
55687;BME280;41911;52.362;4.978;2023-06-14T01:50:36;101641.61;;;20.51;30.62
55687;BME280;41911;52.362;4.978;2023-06-14T01:51:07;101642.09;;;20.41;30.33
55687;BME280;41911;52.362;4.978;2023-06-14T01:51:38;101640.12;;;20.33;30.74
55687;BME280;41911;52.362;4.978;2023-06-14T01:52:09;101641.79;;;20.42;31.12
55687;BME280;41911;52.362;4.978;2023-06-14T01:52:40;101641.68;;;20.02;31.19
55687;BME280;41911;52.362;4.978;2023-06-14T01:53:11;101641.28;;;20.36;31.13
55687;BME280;41911;52.362;4.978;2023-06-14T01:53:42;101641.81;;;20.27;30.71
55687;BME280;41911;52.362;4.978;2023-06-14T01:54:13;101639.09;;;19.91;30.81
55687;BME280;41911;52.362;4.978;2023-06-14T01:54:44;101640.53;;;20.45;31.09
55687;BME280;41911;52.362;4.978;2023-06-14T01:55:14;101639.64;;;20.59;30.63
55687;BME280;41911;52.362;4.978;2023-06-14T01:55:46;101638.70;;;20.46;30.89
55687;BME280;41911;52.362;4.978;2023-06-14T01:56:17;101637.22;;;20.48;31.22
55687;BME280;41911;52.362;4.978;2023-06-14T01:56:49;101637.50;;;20.38;31.29
55687;BME280;41911;52.362;4.978;2023-06-14T01:57:20;101637.80;;;20.33;31.00
55687;BME280;41911;52.362;4.978;2023-06-14T01:57:51;101638.29;;;20.27;30.98
55687;BME280;41911;52.362;4.978;2023-06-14T01:58:22;101638.76;;;19.97;30.93
55687;BME280;41911;52.362;4.978;2023-06-14T01:58:53;101638.59;;;20.86;30.86
55687;BME280;41911;52.362;4.978;2023-06-14T01:59:24;101636.89;;;20.45;30.79
55687;BME280;41911;52.362;4.978;2023-06-14T01:59:55;101635.54;;;20.21;31.12
55687;BME280;41911;52.362;4.978;2023-06-14T02:00:26;101637.16;;;20.15;31.26
55687;BME280;41911;52.362;4.978;2023-06-14T02:00:57;101635.97;;;20.36;31.57
55687;BME280;41911;52.362;4.978;2023-06-14T02:01:28;101636.29;;;20.28;31.56
55687;BME280;41911;52.362;4.978;2023-06-14T02:01:59;101637.10;;;20.24;31.59
55687;BME280;41911;52.362;4.978;2023-06-14T02:02:30;101632.09;;;20.12;31.62
55687;BME280;41911;52.362;4.978;2023-06-14T02:03:01;101632.70;;;20.11;32.05
55687;BME280;41911;52.362;4.978;2023-06-14T02:03:32;101634.42;;;20.16;31.46
55687;BME280;41911;52.362;4.978;2023-06-14T02:04:03;101634.12;;;19.99;31.50
55687;BME280;41911;52.362;4.978;2023-06-14T02:04:34;101635.75;;;19.98;31.66
55687;BME280;41911;52.362;4.978;2023-06-14T02:05:05;101637.64;;;20.27;31.81
55687;BME280;41911;52.362;4.978;2023-06-14T02:05:36;101636.73;;;20.25;31.84
55687;BME280;41911;52.362;4.978;2023-06-14T02:06:07;101635.53;;;20.03;32.07
55687;BME280;41911;52.362;4.978;2023-06-14T02:06:38;101635.07;;;20.40;32.22
55687;BME280;41911;52.362;4.978;2023-06-14T02:07:09;101636.39;;;20.26;32.62
55687;BME280;41911;52.362;4.978;2023-06-14T02:07:40;101637.29;;;19.72;32.80
55687;BME280;41911;52.362;4.978;2023-06-14T02:08:11;101637.22;;;20.10;33.02
55687;BME280;41911;52.362;4.978;2023-06-14T02:08:42;101632.38;;;19.75;33.01
55687;BME280;41911;52.362;4.978;2023-06-14T02:09:14;101632.03;;;19.80;32.80
55687;BME280;41911;52.362;4.978;2023-06-14T02:09:45;101633.85;;;20.53;32.76
55687;BME280;41911;52.362;4.978;2023-06-14T02:10:19;101637.95;;;20.18;32.66
55687;BME280;41911;52.362;4.978;2023-06-14T02:10:50;101635.25;;;19.66;32.67
55687;BME280;41911;52.362;4.978;2023-06-14T02:11:21;101638.14;;;19.64;32.86
55687;BME280;41911;52.362;4.978;2023-06-14T02:11:51;101637.43;;;20.27;33.11
55687;BME280;41911;52.362;4.978;2023-06-14T02:12:22;101636.58;;;19.76;33.00
55687;BME280;41911;52.362;4.978;2023-06-14T02:12:53;101633.54;;;20.30;33.08
55687;BME280;41911;52.362;4.978;2023-06-14T02:13:24;101633.49;;;19.95;33.14
55687;BME280;41911;52.362;4.978;2023-06-14T02:13:55;101632.82;;;20.20;33.37
55687;BME280;41911;52.362;4.978;2023-06-14T02:14:26;101631.08;;;19.86;33.25
55687;BME280;41911;52.362;4.978;2023-06-14T02:14:57;101627.37;;;20.10;33.21
55687;BME280;41911;52.362;4.978;2023-06-14T02:15:28;101629.48;;;19.71;33.12
55687;BME280;41911;52.362;4.978;2023-06-14T02:15:59;101629.03;;;19.88;33.15
55687;BME280;41911;52.362;4.978;2023-06-14T02:16:30;101626.83;;;20.15;33.30
55687;BME280;41911;52.362;4.978;2023-06-14T02:17:01;101627.72;;;20.09;33.50
55687;BME280;41911;52.362;4.978;2023-06-14T02:17:32;101629.08;;;19.78;33.45
55687;BME280;41911;52.362;4.978;2023-06-14T02:18:03;101624.62;;;20.05;33.83
55687;BME280;41911;52.362;4.978;2023-06-14T02:18:35;101626.04;;;19.99;33.73
55687;BME280;41911;52.362;4.978;2023-06-14T02:19:06;101626.36;;;19.82;33.55
55687;BME280;41911;52.362;4.978;2023-06-14T02:19:37;101623.34;;;19.96;33.72
55687;BME280;41911;52.362;4.978;2023-06-14T02:20:09;101622.56;;;19.96;33.58
55687;BME280;41911;52.362;4.978;2023-06-14T02:20:40;101624.77;;;19.77;33.33
55687;BME280;41911;52.362;4.978;2023-06-14T02:21:11;101625.62;;;19.40;33.54
55687;BME280;41911;52.362;4.978;2023-06-14T02:21:42;101622.30;;;19.82;33.62
55687;BME280;41911;52.362;4.978;2023-06-14T02:22:13;101622.61;;;19.59;33.64
55687;BME280;41911;52.362;4.978;2023-06-14T02:22:45;101619.55;;;19.65;33.70
55687;BME280;41911;52.362;4.978;2023-06-14T02:23:16;101621.93;;;19.69;33.55
55687;BME280;41911;52.362;4.978;2023-06-14T02:23:46;101621.00;;;19.67;33.37
55687;BME280;41911;52.362;4.978;2023-06-14T02:24:17;101619.24;;;19.82;34.01
55687;BME280;41911;52.362;4.978;2023-06-14T02:24:48;101622.37;;;19.82;33.59
55687;BME280;41911;52.362;4.978;2023-06-14T02:25:49;101623.34;;;19.89;33.54
55687;BME280;41911;52.362;4.978;2023-06-14T02:26:20;101622.12;;;19.54;33.71
55687;BME280;41911;52.362;4.978;2023-06-14T02:26:51;101622.98;;;19.87;33.68
55687;BME280;41911;52.362;4.978;2023-06-14T02:27:22;101621.83;;;19.75;33.31
55687;BME280;41911;52.362;4.978;2023-06-14T02:27:53;101624.05;;;19.98;33.38
55687;BME280;41911;52.362;4.978;2023-06-14T02:28:24;101623.47;;;19.91;33.50
55687;BME280;41911;52.362;4.978;2023-06-14T02:28:55;101625.48;;;19.69;33.43
55687;BME280;41911;52.362;4.978;2023-06-14T02:29:26;101625.62;;;19.59;33.29
55687;BME280;41911;52.362;4.978;2023-06-14T02:29:57;101625.40;;;19.72;33.12
55687;BME280;41911;52.362;4.978;2023-06-14T02:30:28;101624.82;;;19.67;32.80
55687;BME280;41911;52.362;4.978;2023-06-14T02:30:59;101627.90;;;19.79;32.63
55687;BME280;41911;52.362;4.978;2023-06-14T02:31:30;101626.24;;;19.78;32.78
55687;BME280;41911;52.362;4.978;2023-06-14T02:32:01;101624.06;;;19.77;33.10
55687;BME280;41911;52.362;4.978;2023-06-14T02:32:32;101625.95;;;19.79;33.29
55687;BME280;41911;52.362;4.978;2023-06-14T02:33:03;101627.77;;;19.87;33.01
55687;BME280;41911;52.362;4.978;2023-06-14T02:33:34;101627.39;;;19.68;32.72
55687;BME280;41911;52.362;4.978;2023-06-14T02:34:05;101624.20;;;19.75;33.12
55687;BME280;41911;52.362;4.978;2023-06-14T02:34:35;101625.85;;;19.69;32.69
55687;BME280;41911;52.362;4.978;2023-06-14T02:35:08;101623.82;;;19.71;32.96
55687;BME280;41911;52.362;4.978;2023-06-14T02:35:39;101628.49;;;19.73;32.72
55687;BME280;41911;52.362;4.978;2023-06-14T02:36:10;101629.08;;;19.42;32.79
55687;BME280;41911;52.362;4.978;2023-06-14T02:36:40;101625.95;;;19.73;32.90
55687;BME280;41911;52.362;4.978;2023-06-14T02:37:11;101627.96;;;19.69;33.18
55687;BME280;41911;52.362;4.978;2023-06-14T02:37:42;101626.71;;;19.68;33.13
55687;BME280;41911;52.362;4.978;2023-06-14T02:38:13;101630.16;;;19.70;33.28
55687;BME280;41911;52.362;4.978;2023-06-14T02:38:44;101627.76;;;19.74;33.15
55687;BME280;41911;52.362;4.978;2023-06-14T02:39:15;101629.35;;;19.74;33.36
55687;BME280;41911;52.362;4.978;2023-06-14T02:39:46;101630.43;;;19.47;33.61
55687;BME280;41911;52.362;4.978;2023-06-14T02:40:18;101630.54;;;19.76;33.40
55687;BME280;41911;52.362;4.978;2023-06-14T02:40:49;101629.12;;;19.87;33.27
55687;BME280;41911;52.362;4.978;2023-06-14T02:41:20;101629.59;;;19.87;33.03
55687;BME280;41911;52.362;4.978;2023-06-14T02:41:51;101632.62;;;19.67;32.81
55687;BME280;41911;52.362;4.978;2023-06-14T02:42:22;101632.06;;;19.96;32.98
55687;BME280;41911;52.362;4.978;2023-06-14T02:42:53;101629.34;;;19.96;32.68
55687;BME280;41911;52.362;4.978;2023-06-14T02:43:23;101632.70;;;19.96;32.64
55687;BME280;41911;52.362;4.978;2023-06-14T02:43:54;101634.41;;;19.97;32.65
55687;BME280;41911;52.362;4.978;2023-06-14T02:44:26;101634.43;;;19.73;32.47
55687;BME280;41911;52.362;4.978;2023-06-14T02:44:57;101635.49;;;19.70;32.54
55687;BME280;41911;52.362;4.978;2023-06-14T02:45:28;101633.11;;;20.05;32.50
55687;BME280;41911;52.362;4.978;2023-06-14T02:45:59;101634.65;;;19.69;32.46
55687;BME280;41911;52.362;4.978;2023-06-14T02:46:30;101633.96;;;19.98;32.48